sensor_id;sensor_type;location;lat;lon;timestamp;pressure;altitude;pressure_sealevel;temperature;humidity
20228;BME280;12195;55.790;37.572;2023-04-10T00:02:27;100659.57;;;11.52;39.08
20228;BME280;12195;55.790;37.572;2023-04-10T00:04:59;100654.25;;;11.53;39.28
20228;BME280;12195;55.790;37.572;2023-04-10T00:07:32;100655.95;;;11.54;39.71
20228;BME280;12195;55.790;37.572;2023-04-10T00:10:04;100654.19;;;11.55;40.05
20228;BME280;12195;55.790;37.572;2023-04-10T00:12:36;100658.58;;;11.54;39.59
20228;BME280;12195;55.790;37.572;2023-04-10T00:15:09;100657.59;;;11.57;39.51
20228;BME280;12195;55.790;37.572;2023-04-10T00:17:41;100666.28;;;11.59;39.42
20228;BME280;12195;55.790;37.572;2023-04-10T00:20:13;100666.23;;;11.60;39.41
20228;BME280;12195;55.790;37.572;2023-04-10T00:22:45;100664.46;;;11.61;39.31
20228;BME280;12195;55.790;37.572;2023-04-10T00:25:17;100657.47;;;11.60;39.20
20228;BME280;12195;55.790;37.572;2023-04-10T00:27:50;100662.63;;;11.63;39.17
20228;BME280;12195;55.790;37.572;2023-04-10T00:30:22;100664.40;;;11.62;39.49
20228;BME280;12195;55.790;37.572;2023-04-10T00:32:54;100662.73;;;11.60;39.49
20228;BME280;12195;55.790;37.572;2023-04-10T00:35:27;100671.48;;;11.60;39.34
20228;BME280;12195;55.790;37.572;2023-04-10T00:37:59;100670.73;;;11.57;39.40
20228;BME280;12195;55.790;37.572;2023-04-10T00:40:31;100677.77;;;11.56;39.52
20228;BME280;12195;55.790;37.572;2023-04-10T00:43:04;100671.80;;;11.53;39.78
20228;BME280;12195;55.790;37.572;2023-04-10T00:45:36;100684.17;;;11.51;39.65
20228;BME280;12195;55.790;37.572;2023-04-10T00:48:09;100682.44;;;11.50;40.17
20228;BME280;12195;55.790;37.572;2023-04-10T00:50:41;100678.11;;;11.49;40.22
20228;BME280;12195;55.790;37.572;2023-04-10T00:53:15;100675.53;;;11.47;40.40
20228;BME280;12195;55.790;37.572;2023-04-10T00:55:48;100669.56;;;11.44;40.53
20228;BME280;12195;55.790;37.572;2023-04-10T00:58:20;100676.64;;;11.42;41.22
20228;BME280;12195;55.790;37.572;2023-04-10T01:00:53;100669.75;;;11.39;41.95
20228;BME280;12195;55.790;37.572;2023-04-10T01:03:26;100669.91;;;11.36;41.40
20228;BME280;12195;55.790;37.572;2023-04-10T01:06:22;100674.35;;;11.34;41.44
20228;BME280;12195;55.790;37.572;2023-04-10T01:08:59;100670.80;;;11.35;41.25
20228;BME280;12195;55.790;37.572;2023-04-10T01:17:34;100663.84;;;11.34;41.17
20228;BME280;12195;55.790;37.572;2023-04-10T01:20:23;100667.45;;;11.32;41.25
20228;BME280;12195;55.790;37.572;2023-04-10T01:25:53;100661.27;;;11.33;41.84
20228;BME280;12195;55.790;37.572;2023-04-10T01:31:45;100659.96;;;11.23;44.67
20228;BME280;12195;55.790;37.572;2023-04-10T01:34:14;100659.21;;;11.19;43.27
20228;BME280;12195;55.790;37.572;2023-04-10T01:36:59;100659.30;;;11.18;42.90
20228;BME280;12195;55.790;37.572;2023-04-10T01:39:30;100671.64;;;11.16;43.85
20228;BME280;12195;55.790;37.572;2023-04-10T01:42:02;100669.94;;;11.15;43.34
20228;BME280;12195;55.790;37.572;2023-04-10T01:44:40;100669.96;;;11.35;41.92
20228;BME280;12195;55.790;37.572;2023-04-10T01:47:17;100662.83;;;11.17;42.51
20228;BME280;12195;55.790;37.572;2023-04-10T01:49:51;100670.00;;;11.13;42.57
20228;BME280;12195;55.790;37.572;2023-04-10T01:52:24;100665.66;;;11.12;42.60
20228;BME280;12195;55.790;37.572;2023-04-10T01:55:02;100671.91;;;11.10;42.86
20228;BME280;12195;55.790;37.572;2023-04-10T01:57:35;100668.53;;;11.06;43.20
20228;BME280;12195;55.790;37.572;2023-04-10T02:00:08;100667.84;;;11.23;42.26
20228;BME280;12195;55.790;37.572;2023-04-10T02:02:45;100666.66;;;11.10;43.25
20228;BME280;12195;55.790;37.572;2023-04-10T02:05:18;100673.61;;;11.11;42.95
20228;BME280;12195;55.790;37.572;2023-04-10T02:08:01;100668.36;;;11.11;43.21
20228;BME280;12195;55.790;37.572;2023-04-10T02:10:57;100662.11;;;11.13;43.26
20228;BME280;12195;55.790;37.572;2023-04-10T02:13:27;100665.61;;;11.14;43.46
20228;BME280;12195;55.790;37.572;2023-04-10T02:16:02;100666.32;;;11.17;43.95
20228;BME280;12195;55.790;37.572;2023-04-10T02:18:36;100676.72;;;11.20;44.36
20228;BME280;12195;55.790;37.572;2023-04-10T02:21:10;100665.39;;;11.18;44.93
20228;BME280;12195;55.790;37.572;2023-04-10T02:23:43;100672.30;;;11.21;45.27
20228;BME280;12195;55.790;37.572;2023-04-10T02:26:16;100659.15;;;11.21;45.51
20228;BME280;12195;55.790;37.572;2023-04-10T02:28:49;100664.41;;;11.21;45.57
20228;BME280;12195;55.790;37.572;2023-04-10T02:31:22;100661.72;;;11.22;45.91
20228;BME280;12195;55.790;37.572;2023-04-10T02:33:56;100656.58;;;11.19;45.97
20228;BME280;12195;55.790;37.572;2023-04-10T02:36:28;100655.75;;;11.19;45.65
20228;BME280;12195;55.790;37.572;2023-04-10T02:39:00;100655.75;;;11.19;45.75
20228;BME280;12195;55.790;37.572;2023-04-10T02:41:33;100655.75;;;11.19;45.79
20228;BME280;12195;55.790;37.572;2023-04-10T02:44:05;100654.05;;;11.18;46.15
20228;BME280;12195;55.790;37.572;2023-04-10T02:46:37;100654.88;;;11.18;46.52
20228;BME280;12195;55.790;37.572;2023-04-10T02:49:11;100655.75;;;11.19;46.81
20228;BME280;12195;55.790;37.572;2023-04-10T02:51:44;100657.33;;;11.23;47.53
20228;BME280;12195;55.790;37.572;2023-04-10T02:54:16;100655.87;;;11.16;48.17
20228;BME280;12195;55.790;37.572;2023-04-10T02:56:48;100659.54;;;11.12;49.35
20228;BME280;12195;55.790;37.572;2023-04-10T02:59:20;100653.95;;;10.99;50.00
20228;BME280;12195;55.790;37.572;2023-04-10T03:01:53;100656.49;;;11.00;49.11
20228;BME280;12195;55.790;37.572;2023-04-10T03:04:25;100648.33;;;10.86;51.01
20228;BME280;12195;55.790;37.572;2023-04-10T03:06:59;100648.51;;;10.82;51.70
20228;BME280;12195;55.790;37.572;2023-04-10T03:09:31;100651.89;;;10.85;53.73
20228;BME280;12195;55.790;37.572;2023-04-10T03:12:04;100652.43;;;10.93;50.56
20228;BME280;12195;55.790;37.572;2023-04-10T03:14:36;100657.95;;;11.08;47.93
20228;BME280;12195;55.790;37.572;2023-04-10T03:17:08;100652.13;;;11.21;48.06
20228;BME280;12195;55.790;37.572;2023-04-10T03:19:42;100655.02;;;11.35;47.39
20228;BME280;12195;55.790;37.572;2023-04-10T03:22:14;100652.80;;;11.46;46.69
20228;BME280;12195;55.790;37.572;2023-04-10T03:24:46;100648.25;;;11.50;46.38
20228;BME280;12195;55.790;37.572;2023-04-10T03:27:19;100650.75;;;11.53;46.65
20228;BME280;12195;55.790;37.572;2023-04-10T03:29:51;100650.69;;;11.54;47.36
20228;BME280;12195;55.790;37.572;2023-04-10T03:32:25;100652.45;;;11.54;47.49
20228;BME280;12195;55.790;37.572;2023-04-10T03:34:58;100655.89;;;11.56;47.46
20228;BME280;12195;55.790;37.572;2023-04-10T03:37:31;100668.17;;;11.55;47.98
20228;BME280;12195;55.790;37.572;2023-04-10T03:40:05;100664.83;;;11.52;47.66
20228;BME280;12195;55.790;37.572;2023-04-10T03:42:39;100659.81;;;11.46;47.84
20228;BME280;12195;55.790;37.572;2023-04-10T03:45:12;100667.05;;;11.41;48.01
20228;BME280;12195;55.790;37.572;2023-04-10T03:47:44;100662.08;;;11.35;48.35
20228;BME280;12195;55.790;37.572;2023-04-10T03:50:17;100665.59;;;11.34;48.67
20228;BME280;12195;55.790;37.572;2023-04-10T03:52:52;100667.33;;;11.35;48.55
20228;BME280;12195;55.790;37.572;2023-04-10T03:55:26;100660.34;;;11.34;48.54
20228;BME280;12195;55.790;37.572;2023-04-10T03:57:59;100661.20;;;11.34;49.08
20228;BME280;12195;55.790;37.572;2023-04-10T04:00:32;100661.80;;;11.41;48.56
20228;BME280;12195;55.790;37.572;2023-04-10T04:03:12;100666.81;;;11.47;48.49
20228;BME280;12195;55.790;37.572;2023-04-10T04:06:05;100664.77;;;11.53;48.49
20228;BME280;12195;55.790;37.572;2023-04-10T04:08:48;100664.40;;;11.62;49.07
20228;BME280;12195;55.790;37.572;2023-04-10T04:11:33;100663.28;;;11.68;48.65
20228;BME280;12195;55.790;37.572;2023-04-10T04:14:07;100661.23;;;11.74;48.10
20228;BME280;12195;55.790;37.572;2023-04-10T04:16:45;100656.55;;;11.81;47.30
20228;BME280;12195;55.790;37.572;2023-04-10T04:19:34;100655.30;;;11.89;47.49
20228;BME280;12195;55.790;37.572;2023-04-10T04:22:19;100652.25;;;11.98;46.84
20228;BME280;12195;55.790;37.572;2023-04-10T04:24:53;100647.20;;;12.12;46.84
20228;BME280;12195;55.790;37.572;2023-04-10T04:27:42;100649.06;;;12.29;46.13
20228;BME280;12195;55.790;37.572;2023-04-10T04:30:28;100646.91;;;12.55;45.30
20228;BME280;12195;55.790;37.572;2023-04-10T04:33:08;100655.03;;;12.86;45.16
20228;BME280;12195;55.790;37.572;2023-04-10T04:36:00;100654.80;;;13.09;44.69
20228;BME280;12195;55.790;37.572;2023-04-10T04:38:34;100651.48;;;13.23;43.70
20228;BME280;12195;55.790;37.572;2023-04-10T04:41:08;100654.41;;;13.34;43.77
20228;BME280;12195;55.790;37.572;2023-04-10T04:43:42;100660.61;;;13.50;43.70
20228;BME280;12195;55.790;37.572;2023-04-10T04:46:19;100662.86;;;13.74;42.83
20228;BME280;12195;55.790;37.572;2023-04-10T04:49:00;100648.02;;;14.04;42.49
20228;BME280;12195;55.790;37.572;2023-04-10T04:51:45;100646.80;;;14.27;41.01
20228;BME280;12195;55.790;37.572;2023-04-10T04:54:28;100646.73;;;14.44;40.82
20228;BME280;12195;55.790;37.572;2023-04-10T04:57:03;100644.00;;;14.45;40.51
20228;BME280;12195;55.790;37.572;2023-04-10T04:59:55;100648.27;;;14.48;40.58
20228;BME280;12195;55.790;37.572;2023-04-10T05:02:47;100655.25;;;14.49;40.86
20228;BME280;12195;55.790;37.572;2023-04-10T05:05:33;100655.60;;;14.43;40.05
20228;BME280;12195;55.790;37.572;2023-04-10T05:08:13;100661.05;;;14.40;40.31
20228;BME280;12195;55.790;37.572;2023-04-10T05:10:53;100663.77;;;14.38;40.35
20228;BME280;12195;55.790;37.572;2023-04-10T05:13:44;100659.19;;;14.42;40.33
20228;BME280;12195;55.790;37.572;2023-04-10T05:16:20;100655.25;;;14.49;40.39
20228;BME280;12195;55.790;37.572;2023-04-10T05:18:58;100660.80;;;14.60;40.21
20228;BME280;12195;55.790;37.572;2023-04-10T05:21:35;100663.00;;;14.67;39.61
20228;BME280;12195;55.790;37.572;2023-04-10T05:24:10;100648.52;;;14.74;39.14
20228;BME280;12195;55.790;37.572;2023-04-10T05:26:43;100659.34;;;14.85;39.00
20228;BME280;12195;55.790;37.572;2023-04-10T05:29:24;100667.41;;;14.98;39.09
20228;BME280;12195;55.790;37.572;2023-04-10T05:32:00;100665.63;;;14.98;38.68
20228;BME280;12195;55.790;37.572;2023-04-10T05:34:37;100668.94;;;15.02;38.33
20228;BME280;12195;55.790;37.572;2023-04-10T05:37:11;100666.50;;;14.99;38.49
20228;BME280;12195;55.790;37.572;2023-04-10T05:39:45;100673.11;;;15.06;39.09
20228;BME280;12195;55.790;37.572;2023-04-10T05:42:25;100667.32;;;15.15;37.98
20228;BME280;12195;55.790;37.572;2023-04-10T05:45:08;100672.48;;;15.32;38.03
20228;BME280;12195;55.790;37.572;2023-04-10T05:47:58;100666.52;;;15.58;37.27
20228;BME280;12195;55.790;37.572;2023-04-10T05:50:48;100658.23;;;15.92;36.69
20228;BME280;12195;55.790;37.572;2023-04-10T05:53:40;100666.74;;;16.39;36.29
20228;BME280;12195;55.790;37.572;2023-04-10T05:56:20;100598.85;;;16.77;34.94
20228;BME280;12195;55.790;37.572;2023-04-10T05:59:10;100663.94;;;17.48;33.50
20228;BME280;12195;55.790;37.572;2023-04-10T06:01:48;100663.94;;;17.48;33.50
20228;BME280;12195;55.790;37.572;2023-04-10T06:04:21;100650.42;;;17.39;33.58
20228;BME280;12195;55.790;37.572;2023-04-10T06:06:55;100664.16;;;17.45;33.55
20228;BME280;12195;55.790;37.572;2023-04-10T06:09:28;100671.47;;;17.42;33.75
20228;BME280;12195;55.790;37.572;2023-04-10T06:12:00;100667.80;;;17.30;33.71
20228;BME280;12195;55.790;37.572;2023-04-10T06:14:32;100670.89;;;17.24;33.83
20228;BME280;12195;55.790;37.572;2023-04-10T06:17:04;100674.13;;;17.15;33.82
20228;BME280;12195;55.790;37.572;2023-04-10T06:19:38;100668.38;;;17.09;34.03
20228;BME280;12195;55.790;37.572;2023-04-10T06:22:10;100670.91;;;16.98;34.19
20228;BME280;12195;55.790;37.572;2023-04-10T06:24:43;100677.36;;;16.94;34.44
20228;BME280;12195;55.790;37.572;2023-04-10T06:27:15;100662.88;;;16.85;34.23
20228;BME280;12195;55.790;37.572;2023-04-10T06:29:47;100674.09;;;16.76;34.55
20228;BME280;12195;55.790;37.572;2023-04-10T06:32:21;100677.44;;;16.66;35.06
20228;BME280;12195;55.790;37.572;2023-04-10T06:34:54;100678.12;;;16.55;35.69
20228;BME280;12195;55.790;37.572;2023-04-10T06:37:30;100678.80;;;16.45;35.97
20228;BME280;12195;55.790;37.572;2023-04-10T06:40:09;100682.09;;;16.34;35.91
20228;BME280;12195;55.790;37.572;2023-04-10T06:42:41;100682.09;;;16.34;35.91
20228;BME280;12195;55.790;37.572;2023-04-10T06:45:15;100678.48;;;16.35;36.03
20228;BME280;12195;55.790;37.572;2023-04-10T06:47:47;100678.86;;;16.57;35.76
20228;BME280;12195;55.790;37.572;2023-04-10T06:50:20;100686.30;;;17.83;34.01
20228;BME280;12195;55.790;37.572;2023-04-10T06:52:53;100672.27;;;19.50;30.29
20228;BME280;12195;55.790;37.572;2023-04-10T06:55:27;100670.72;;;20.37;28.46
20228;BME280;12195;55.790;37.572;2023-04-10T06:57:59;100672.59;;;21.54;27.08
20228;BME280;12195;55.790;37.572;2023-04-10T07:00:31;100675.72;;;22.20;25.51
20228;BME280;12195;55.790;37.572;2023-04-10T07:03:03;100666.95;;;21.88;25.65
20228;BME280;12195;55.790;37.572;2023-04-10T07:05:35;100677.17;;;21.11;26.94
20228;BME280;12195;55.790;37.572;2023-04-10T07:08:09;100675.69;;;20.31;28.02
20228;BME280;12195;55.790;37.572;2023-04-10T07:10:41;100677.42;;;19.75;29.22
20228;BME280;12195;55.790;37.572;2023-04-10T07:13:14;100687.20;;;19.29;30.10
20228;BME280;12195;55.790;37.572;2023-04-10T07:15:47;100685.00;;;18.87;30.46
20228;BME280;12195;55.790;37.572;2023-04-10T07:18:19;100676.28;;;18.49;31.41
20228;BME280;12195;55.790;37.572;2023-04-10T07:20:51;100686.83;;;18.13;32.35
20228;BME280;12195;55.790;37.572;2023-04-10T07:23:24;100685.12;;;17.75;32.87
20228;BME280;12195;55.790;37.572;2023-04-10T07:25:57;100689.95;;;17.43;33.54
20228;BME280;12195;55.790;37.572;2023-04-10T07:28:29;100687.74;;;17.23;34.04
20228;BME280;12195;55.790;37.572;2023-04-10T07:31:03;100689.83;;;17.06;34.26
20228;BME280;12195;55.790;37.572;2023-04-10T07:33:37;100694.11;;;16.94;33.95
20228;BME280;12195;55.790;37.572;2023-04-10T07:36:09;100692.61;;;16.90;34.25
20228;BME280;12195;55.790;37.572;2023-04-10T07:38:42;100696.41;;;16.86;33.98
20228;BME280;12195;55.790;37.572;2023-04-10T07:41:15;100695.86;;;16.81;33.95
20228;BME280;12195;55.790;37.572;2023-04-10T07:43:47;100689.45;;;16.71;34.51
20228;BME280;12195;55.790;37.572;2023-04-10T07:46:20;100686.12;;;16.68;34.04
20228;BME280;12195;55.790;37.572;2023-04-10T07:48:53;100683.69;;;16.65;33.93
20228;BME280;12195;55.790;37.572;2023-04-10T07:51:26;100667.52;;;16.55;33.40
20228;BME280;12195;55.790;37.572;2023-04-10T07:53:58;100667.52;;;16.55;33.40
20228;BME280;12195;55.790;37.572;2023-04-10T07:56:31;100671.44;;;16.76;33.32
20228;BME280;12195;55.790;37.572;2023-04-10T07:59:04;100662.08;;;16.97;33.35
20228;BME280;12195;55.790;37.572;2023-04-10T08:01:37;100653.58;;;16.92;33.83
20228;BME280;12195;55.790;37.572;2023-04-10T08:04:09;100680.05;;;17.06;32.98
20228;BME280;12195;55.790;37.572;2023-04-10T08:06:42;100679.44;;;17.15;33.13
20228;BME280;12195;55.790;37.572;2023-04-10T08:09:14;100671.62;;;17.26;32.72
20228;BME280;12195;55.790;37.572;2023-04-10T08:11:47;100670.67;;;17.66;32.84
20228;BME280;12195;55.790;37.572;2023-04-10T08:14:19;100681.31;;;17.91;31.98
20228;BME280;12195;55.790;37.572;2023-04-10T08:16:51;100666.42;;;18.14;31.71
20228;BME280;12195;55.790;37.572;2023-04-10T08:19:23;100666.72;;;18.47;32.36
20228;BME280;12195;55.790;37.572;2023-04-10T08:21:55;100668.23;;;18.98;31.42
20228;BME280;12195;55.790;37.572;2023-04-10T08:24:29;100663.79;;;19.56;30.12
20228;BME280;12195;55.790;37.572;2023-04-10T08:27:02;100657.32;;;19.93;29.05
20228;BME280;12195;55.790;37.572;2023-04-10T08:29:35;100666.34;;;20.14;28.89
20228;BME280;12195;55.790;37.572;2023-04-10T08:32:07;100662.46;;;20.18;28.54
20228;BME280;12195;55.790;37.572;2023-04-10T08:34:39;100652.15;;;20.25;28.37
20228;BME280;12195;55.790;37.572;2023-04-10T08:37:12;100661.48;;;20.30;28.76
20228;BME280;12195;55.790;37.572;2023-04-10T08:39:45;100667.69;;;20.31;28.26
20228;BME280;12195;55.790;37.572;2023-04-10T08:42:17;100658.45;;;20.13;28.78
20228;BME280;12195;55.790;37.572;2023-04-10T08:44:50;100662.66;;;19.93;28.67
20228;BME280;12195;55.790;37.572;2023-04-10T08:47:24;100666.16;;;19.83;29.52
20228;BME280;12195;55.790;37.572;2023-04-10T08:50:00;100669.65;;;19.72;28.46
20228;BME280;12195;55.790;37.572;2023-04-10T08:52:34;100659.02;;;19.83;29.12
20228;BME280;12195;55.790;37.572;2023-04-10T08:55:11;100659.99;;;19.82;28.50
20228;BME280;12195;55.790;37.572;2023-04-10T08:57:45;100660.70;;;19.84;28.46
20228;BME280;12195;55.790;37.572;2023-04-10T09:00:20;100651.73;;;19.74;28.58
20228;BME280;12195;55.790;37.572;2023-04-10T09:02:54;100656.06;;;19.64;28.96
20228;BME280;12195;55.790;37.572;2023-04-10T09:05:29;100656.77;;;19.55;28.87
20228;BME280;12195;55.790;37.572;2023-04-10T09:08:02;100645.62;;;19.50;29.23
20228;BME280;12195;55.790;37.572;2023-04-10T09:10:35;100647.77;;;19.45;29.20
20228;BME280;12195;55.790;37.572;2023-04-10T09:13:07;100640.36;;;19.38;28.89
20228;BME280;12195;55.790;37.572;2023-04-10T09:15:58;100649.05;;;19.29;29.03
20228;BME280;12195;55.790;37.572;2023-04-10T09:21:20;100651.07;;;19.02;29.74
20228;BME280;12195;55.790;37.572;2023-04-10T09:24:00;100642.80;;;18.94;30.30
20228;BME280;12195;55.790;37.572;2023-04-10T09:26:33;100644.24;;;18.87;30.47
20228;BME280;12195;55.790;37.572;2023-04-10T09:29:07;100643.59;;;18.83;30.46
20228;BME280;12195;55.790;37.572;2023-04-10T09:31:41;100641.22;;;18.68;29.98
20228;BME280;12195;55.790;37.572;2023-04-10T09:34:19;100638.18;;;18.49;30.93
20228;BME280;12195;55.790;37.572;2023-04-10T09:36:58;100643.34;;;18.39;31.30
20228;BME280;12195;55.790;37.572;2023-04-10T09:39:36;100643.66;;;18.35;31.09
20228;BME280;12195;55.790;37.572;2023-04-10T09:42:13;100634.92;;;18.33;30.82
20228;BME280;12195;55.790;37.572;2023-04-10T09:44:46;100640.03;;;18.36;30.68
20228;BME280;12195;55.790;37.572;2023-04-10T09:47:20;100634.72;;;18.23;31.19
20228;BME280;12195;55.790;37.572;2023-04-10T09:50:02;100640.45;;;18.17;31.01
20228;BME280;12195;55.790;37.572;2023-04-10T09:52:33;100639.08;;;18.12;31.04
20228;BME280;12195;55.790;37.572;2023-04-10T09:55:08;100644.92;;;18.42;30.75
20228;BME280;12195;55.790;37.572;2023-04-10T09:57:43;100645.70;;;18.06;30.97
20228;BME280;12195;55.790;37.572;2023-04-10T10:00:17;100641.00;;;17.97;31.14
20228;BME280;12195;55.790;37.572;2023-04-10T10:02:51;100639.84;;;17.76;31.21
20228;BME280;12195;55.790;37.572;2023-04-10T10:05:27;100641.75;;;17.62;31.13
20228;BME280;12195;55.790;37.572;2023-04-10T10:08:00;100644.25;;;17.38;31.77
20228;BME280;12195;55.790;37.572;2023-04-10T10:10:33;100648.59;;;17.27;32.35
20228;BME280;12195;55.790;37.572;2023-04-10T10:13:07;100648.25;;;17.19;32.26
20228;BME280;12195;55.790;37.572;2023-04-10T10:16:01;100630.33;;;16.96;32.56
20228;BME280;12195;55.790;37.572;2023-04-10T10:19:00;100630.33;;;16.96;32.56
20228;BME280;12195;55.790;37.572;2023-04-10T10:21:33;100639.19;;;16.82;32.81
20228;BME280;12195;55.790;37.572;2023-04-10T10:24:09;100634.66;;;16.84;32.90
20228;BME280;12195;55.790;37.572;2023-04-10T10:26:44;100644.36;;;16.98;32.68
20228;BME280;12195;55.790;37.572;2023-04-10T10:29:19;100638.22;;;17.10;32.69
20228;BME280;12195;55.790;37.572;2023-04-10T10:31:53;100631.80;;;17.26;32.62
20228;BME280;12195;55.790;37.572;2023-04-10T10:34:26;100627.72;;;17.47;32.11
20228;BME280;12195;55.790;37.572;2023-04-10T10:36:59;100638.13;;;17.63;31.83
20228;BME280;12195;55.790;37.572;2023-04-10T10:42:35;100603.09;;;17.45;31.00
20228;BME280;12195;55.790;37.572;2023-04-10T10:45:12;100629.64;;;17.58;31.76
20228;BME280;12195;55.790;37.572;2023-04-10T10:47:53;100631.55;;;17.68;31.36
20228;BME280;12195;55.790;37.572;2023-04-10T10:50:21;100616.70;;;17.78;31.58
20228;BME280;12195;55.790;37.572;2023-04-10T10:52:56;100614.73;;;18.05;31.26
20228;BME280;12195;55.790;37.572;2023-04-10T10:55:29;100620.00;;;18.30;30.64
20228;BME280;12195;55.790;37.572;2023-04-10T10:58:04;100620.61;;;18.59;30.28
20228;BME280;12195;55.790;37.572;2023-04-10T11:03:27;100618.05;;;19.04;29.51
20228;BME280;12195;55.790;37.572;2023-04-10T11:06:11;100614.02;;;19.22;29.07
20228;BME280;12195;55.790;37.572;2023-04-10T11:08:40;100614.09;;;19.44;28.66
20228;BME280;12195;55.790;37.572;2023-04-10T11:11:18;100616.08;;;19.64;28.10
20228;BME280;12195;55.790;37.572;2023-04-10T11:19:10;100608.95;;;19.65;28.09
20228;BME280;12195;55.790;37.572;2023-04-10T11:22:05;100613.98;;;19.46;28.63
20228;BME280;12195;55.790;37.572;2023-04-10T11:24:58;100609.70;;;19.32;28.83
20228;BME280;12195;55.790;37.572;2023-04-10T11:27:46;100610.59;;;19.20;29.19
20228;BME280;12195;55.790;37.572;2023-04-10T11:30:24;100605.75;;;19.14;29.36
20228;BME280;12195;55.790;37.572;2023-04-10T11:33:01;100606.20;;;19.08;29.62
20228;BME280;12195;55.790;37.572;2023-04-10T11:35:35;100609.28;;;18.91;30.10
20228;BME280;12195;55.790;37.572;2023-04-10T11:38:13;100611.08;;;18.67;30.22
20228;BME280;12195;55.790;37.572;2023-04-10T11:40:59;100606.83;;;18.41;30.49
20228;BME280;12195;55.790;37.572;2023-04-10T11:43:32;100608.13;;;18.23;31.12
20228;BME280;12195;55.790;37.572;2023-04-10T11:46:06;100614.42;;;18.10;31.14
20228;BME280;12195;55.790;37.572;2023-04-10T11:48:39;100607.42;;;17.96;31.42
20228;BME280;12195;55.790;37.572;2023-04-10T11:51:13;100611.80;;;17.85;31.98
20228;BME280;12195;55.790;37.572;2023-04-10T11:53:45;100613.80;;;17.81;32.29
20228;BME280;12195;55.790;37.572;2023-04-10T11:56:18;100602.02;;;17.73;31.58
20228;BME280;12195;55.790;37.572;2023-04-10T11:58:54;100609.25;;;17.58;32.23
20228;BME280;12195;55.790;37.572;2023-04-10T12:01:27;100616.56;;;17.42;31.90
20228;BME280;12195;55.790;37.572;2023-04-10T12:03:59;100614.80;;;17.29;33.66
20228;BME280;12195;55.790;37.572;2023-04-10T12:06:33;100626.15;;;17.18;34.13
20228;BME280;12195;55.790;37.572;2023-04-10T12:09:17;100619.96;;;17.05;34.35
20228;BME280;12195;55.790;37.572;2023-04-10T12:11:55;100623.33;;;16.95;34.89
20228;BME280;12195;55.790;37.572;2023-04-10T12:14:31;100603.71;;;16.71;36.47
20228;BME280;12195;55.790;37.572;2023-04-10T12:17:08;100603.71;;;16.71;36.47
20228;BME280;12195;55.790;37.572;2023-04-10T12:19:38;100616.46;;;16.78;36.26
20228;BME280;12195;55.790;37.572;2023-04-10T12:22:12;100625.80;;;16.71;36.85
20228;BME280;12195;55.790;37.572;2023-04-10T12:24:49;100606.20;;;16.60;37.39
20228;BME280;12195;55.790;37.572;2023-04-10T12:27:25;100610.70;;;16.72;38.69
20228;BME280;12195;55.790;37.572;2023-04-10T12:29:59;100616.72;;;16.61;41.09
20228;BME280;12195;55.790;37.572;2023-04-10T12:32:33;100610.87;;;16.56;42.12
20228;BME280;12195;55.790;37.572;2023-04-10T12:35:06;100613.87;;;16.64;41.28
20228;BME280;12195;55.790;37.572;2023-04-10T12:37:51;100607.55;;;17.57;39.98
20228;BME280;12195;55.790;37.572;2023-04-10T12:40:25;100599.23;;;19.53;34.82
20228;BME280;12195;55.790;37.572;2023-04-10T12:42:57;100592.42;;;21.74;31.05
20228;BME280;12195;55.790;37.572;2023-04-10T12:45:42;100598.80;;;22.13;30.13
20228;BME280;12195;55.790;37.572;2023-04-10T12:48:22;100591.92;;;21.90;30.26
20228;BME280;12195;55.790;37.572;2023-04-10T12:50:47;100605.28;;;22.20;31.48
20228;BME280;12195;55.790;37.572;2023-04-10T12:53:20;100604.09;;;21.01;30.56
20228;BME280;12195;55.790;37.572;2023-04-10T12:56:02;100604.23;;;20.57;32.01
20228;BME280;12195;55.790;37.572;2023-04-10T12:58:36;100596.72;;;20.06;32.51
20228;BME280;12195;55.790;37.572;2023-04-10T13:01:08;100603.13;;;19.60;33.37
20228;BME280;12195;55.790;37.572;2023-04-10T13:03:41;100591.95;;;19.20;33.94
20228;BME280;12195;55.790;37.572;2023-04-10T13:06:14;100593.30;;;18.91;33.88
20228;BME280;12195;55.790;37.572;2023-04-10T13:08:46;100600.80;;;18.63;34.43
20228;BME280;12195;55.790;37.572;2023-04-10T13:11:18;100595.76;;;18.47;35.32
20228;BME280;12195;55.790;37.572;2023-04-10T13:13:51;100597.22;;;18.98;34.57
20228;BME280;12195;55.790;37.572;2023-04-10T13:16:24;100594.50;;;19.11;33.98
20228;BME280;12195;55.790;37.572;2023-04-10T13:18:56;100595.44;;;19.10;33.58
20228;BME280;12195;55.790;37.572;2023-04-10T13:21:29;100596.52;;;19.07;33.79
20228;BME280;12195;55.790;37.572;2023-04-10T13:24:01;100586.23;;;19.03;33.40
20228;BME280;12195;55.790;37.572;2023-04-10T13:26:33;100591.89;;;18.98;33.66
20228;BME280;12195;55.790;37.572;2023-04-10T13:29:05;100591.51;;;18.92;34.14
20228;BME280;12195;55.790;37.572;2023-04-10T13:31:37;100597.84;;;18.78;34.07
20228;BME280;12195;55.790;37.572;2023-04-10T13:34:09;100586.92;;;18.70;34.68
20228;BME280;12195;55.790;37.572;2023-04-10T13:36:42;100585.23;;;18.69;35.29
20228;BME280;12195;55.790;37.572;2023-04-10T13:39:14;100584.73;;;18.64;34.89
20228;BME280;12195;55.790;37.572;2023-04-10T13:41:48;100589.19;;;18.64;34.66
20228;BME280;12195;55.790;37.572;2023-04-10T13:44:20;100587.42;;;18.75;34.71
20228;BME280;12195;55.790;37.572;2023-04-10T13:46:53;100579.83;;;18.82;34.57
20228;BME280;12195;55.790;37.572;2023-04-10T13:49:25;100581.72;;;18.92;34.46